Main page
Satellite images 15-day forecastsClimateMarine weather Cyclones Lightning AirportsFAQ Newsletter About
Weather : Europe Africa North America South America Asia Australia-Oceania Others
Languages Contact

Munich, Germany

Franz-Josef-Strauß

latitude: 48-21N, longitude: 011-47E, elevation: 453 m


METAR: EDDM 231750Z 07002KT CAVOK 10/05 Q1019 NOSIG
TAF: EDDM 231700Z 2318/2424 10003KT CAVOK TEMPO 2402/2407 1200 BCFG BECMG 2410/2412 27007KT TEMPO 2420/2424 RA BKN012

Time: 20:19 (18:19 UTC)

Current weather observation

The report was made 29 minutes ago, at 17:50 UTC  
Wind 02 kt from the East/Northeast
Temperature 10°C
Humidity 71%
Pressure 1019 hPa
Visibility 10 km or more
no clouds below 1500 m and no cumulonimbus

Change units

Forecast

The report was made 01 hour and 19 minutes ago, at 17:00 UTC  
Forecast valid from 23 at 18 UTC to 24 at 24 UTC
Wind 03 kt from the East
Visibility 10 km or more
no clouds below 1500 m and no cumulonimbus
Temporary
from 24 at 02 UTC to 24 at 07 UTC
Visibility 1200 m
patches of fog
Becoming
from 24 at 10 UTC to 24 at 12 UTC
Wind 07 kt from the West
Temporary
from 24 at 20 UTC to 24 at 24 UTC
Broken clouds at a height of 1200 ft
rain
The information on this site is subject to a disclaimer
Weather : Europe Africa North America South America Asia Australia-Oceania Others
Satellite images 15-day forecastsClimateMarine weather Cyclones Lightning AirportsFAQ Languages Contact Newsletter About